Time;durP1;ratioP1;P1;durP2;ratioP2;P2;SDS_P1;SDS_P2;PMS_P1;PMS_P2;Temp;Humidity;BMP_temperature;BMP_pressure;BME280_temperature;BME280_humidity;BME280_pressure;Samples;Min_cycle;Max_cycle;Signal;HPM_P1;HPM_P2
2022/03/04 00:01:29;;;;;;;20.52;12.43;;;;;;;;;;5095330;28;20201;-66
2022/03/04 00:03:56;;;;;;;18.77;12.20;;;;;;;;;;5095251;28;20285;-65
2022/03/04 00:06:23;;;;;;;20.23;10.98;;;;;;;;;;5094970;28;20297;-65
2022/03/04 00:08:51;;;;;;;19.58;11.90;;;;;;;;;;5094869;28;20205;-66
2022/03/04 00:11:19;;;;;;;20.08;13.15;;;;;;;;;;5094584;28;20303;-66
2022/03/04 00:13:47;;;;;;;23.50;12.70;;;;;;;;;;5094772;28;20283;-66
2022/03/04 00:16:14;;;;;;;19.30;12.80;;;;;;;;;;5095419;28;20218;-66
2022/03/04 00:18:42;;;;;;;18.88;11.68;;;;;;;;;;5095301;28;20225;-65
2022/03/04 00:21:10;;;;;;;19.75;11.00;;;;;;;;;;5094690;28;20234;-66
2022/03/04 00:23:37;;;;;;;16.63;10.85;;;;;;;;;;5094822;28;20246;-66
2022/03/04 00:26:04;;;;;;;19.45;13.68;;;;;;;;;;5094948;28;20193;-66
2022/03/04 00:28:33;;;;;;;21.52;13.98;;;;;;;;;;5094755;28;20275;-66
2022/03/04 00:31:00;;;;;;;19.48;12.65;;;;;;;;;;5094741;28;20233;-66
2022/03/04 00:33:27;;;;;;;22.75;13.05;;;;;;;;;;5094347;28;20647;-66
2022/03/04 00:35:55;;;;;;;16.17;11.98;;;;;;;;;;5095213;28;20240;-66
2022/03/04 00:38:22;;;;;;;18.67;12.40;;;;;;;;;;5094679;28;20288;-66
2022/03/04 00:40:50;;;;;;;18.92;12.02;;;;;;;;;;5095154;28;20273;-66
2022/03/04 00:43:18;;;;;;;20.50;12.88;;;;;;;;;;5094184;28;20200;-66
2022/03/04 00:45:46;;;;;;;18.13;12.05;;;;;;;;;;5094489;28;20206;-66
2022/03/04 00:48:14;;;;;;;18.05;11.98;;;;;;;;;;5094066;28;20658;-66
2022/03/04 00:50:41;;;;;;;21.55;12.90;;;;;;;;;;5094039;28;20277;-65
2022/03/04 00:53:08;;;;;;;19.15;11.55;;;;;;;;;;5094251;28;20205;-65
2022/03/04 00:55:37;;;;;;;20.58;11.73;;;;;;;;;;5094140;28;20626;-66
2022/03/04 00:58:05;;;;;;;20.10;12.27;;;;;;;;;;5094249;28;20193;-65
2022/03/04 01:00:33;;;;;;;20.33;12.65;;;;;;;;;;5093928;28;20219;-66
2022/03/04 01:03:02;;;;;;;23.00;13.73;;;;;;;;;;5094706;28;20566;-65
2022/03/04 01:05:30;;;;;;;24.63;12.88;;;;;;;;;;5094144;28;20542;-66
2022/03/04 01:07:57;;;;;;;21.38;13.95;;;;;;;;;;5094174;28;20300;-65
2022/03/04 01:10:24;;;;;;;23.13;11.38;;;;;;;;;;5093812;28;20198;-66
2022/03/04 01:12:52;;;;;;;20.58;13.52;;;;;;;;;;5093762;28;20272;-65
2022/03/04 01:15:19;;;;;;;20.02;12.77;;;;;;;;;;5093592;28;20217;-65
2022/03/04 01:17:46;;;;;;;21.67;13.05;;;;;;;;;;5093978;28;20284;-65
2022/03/04 01:20:15;;;;;;;19.92;12.63;;;;;;;;;;5093588;28;20189;-65
2022/03/04 01:22:42;;;;;;;21.95;14.40;;;;;;;;;;5092919;28;20701;-65
2022/03/04 01:25:10;;;;;;;19.55;12.82;;;;;;;;;;5093758;28;20219;-66
2022/03/04 01:27:37;;;;;;;23.08;14.68;;;;;;;;;;5093841;28;20284;-66
2022/03/04 01:30:05;;;;;;;20.33;12.38;;;;;;;;;;5093999;28;20280;-66
2022/03/04 01:32:32;;;;;;;21.05;12.43;;;;;;;;;;5093479;28;20197;-66
2022/03/04 01:34:59;;;;;;;19.45;12.57;;;;;;;;;;5093806;28;20193;-66
2022/03/04 01:37:28;;;;;;;21.05;12.45;;;;;;;;;;5093820;28;20371;-65
2022/03/04 01:39:55;;;;;;;22.65;13.32;;;;;;;;;;5093653;28;20198;-65
2022/03/04 01:42:23;;;;;;;23.20;12.50;;;;;;;;;;5093702;28;20189;-66
2022/03/04 01:44:50;;;;;;;26.70;15.93;;;;;;;;;;5093530;28;20197;-67
2022/03/04 01:47:17;;;;;;;20.58;13.35;;;;;;;;;;5093681;28;20251;-65
2022/03/04 01:49:45;;;;;;;24.95;13.70;;;;;;;;;;5093407;28;20197;-65
2022/03/04 01:52:12;;;;;;;32.78;15.70;;;;;;;;;;5093705;28;20193;-65
2022/03/04 01:54:40;;;;;;;17.83;12.07;;;;;;;;;;5093536;28;20555;-66
2022/03/04 01:57:08;;;;;;;27.92;14.38;;;;;;;;;;5093528;28;20642;-65
2022/03/04 01:59:35;;;;;;;21.65;14.63;;;;;;;;;;5093513;28;20197;-66
2022/03/04 02:02:02;;;;;;;29.88;14.05;;;;;;;;;;5093610;28;20558;-65
2022/03/04 02:04:29;;;;;;;23.05;14.23;;;;;;;;;;5093500;28;20530;-65
2022/03/04 02:06:57;;;;;;;21.50;14.48;;;;;;;;;;5093532;28;20292;-65
2022/03/04 02:09:24;;;;;;;29.42;15.90;;;;;;;;;;5093293;28;20360;-66
2022/03/04 02:11:53;;;;;;;25.70;14.52;;;;;;;;;;5093142;28;20312;-65
2022/03/04 02:14:20;;;;;;;24.48;15.25;;;;;;;;;;5093312;28;20207;-65
2022/03/04 02:16:48;;;;;;;23.63;15.13;;;;;;;;;;5093505;28;20300;-65
2022/03/04 02:19:17;;;;;;;24.88;14.40;;;;;;;;;;5092947;28;20290;-65
2022/03/04 02:21:51;;;;;;;24.45;16.40;;;;;;;;;;5093622;28;20194;-65
2022/03/04 02:24:19;;;;;;;25.67;15.20;;;;;;;;;;5094114;28;20238;-64
2022/03/04 02:26:46;;;;;;;27.30;15.38;;;;;;;;;;5093035;28;20205;-66
2022/03/04 02:29:13;;;;;;;29.10;16.15;;;;;;;;;;5093238;28;20190;-65
2022/03/04 02:31:41;;;;;;;29.02;16.52;;;;;;;;;;5093696;28;20201;-64
2022/03/04 02:34:08;;;;;;;29.90;16.67;;;;;;;;;;5094505;28;20616;-64
2022/03/04 02:36:37;;;;;;;29.15;15.95;;;;;;;;;;5096527;28;20334;-64
2022/03/04 02:39:06;;;;;;;25.80;14.90;;;;;;;;;;5096646;28;20251;-64
2022/03/04 02:41:34;;;;;;;28.55;16.60;;;;;;;;;;5096421;28;20225;-64
2022/03/04 02:44:01;;;;;;;28.58;16.55;;;;;;;;;;5096492;28;20666;-65
2022/03/04 02:46:28;;;;;;;28.17;16.15;;;;;;;;;;5096442;28;20194;-64
2022/03/04 02:48:56;;;;;;;27.95;16.90;;;;;;;;;;5096855;28;20220;-65
2022/03/04 02:51:23;;;;;;;26.90;15.85;;;;;;;;;;5096681;28;20200;-66
2022/03/04 02:53:51;;;;;;;30.70;16.52;;;;;;;;;;5096733;28;20600;-66
2022/03/04 02:56:19;;;;;;;27.80;15.57;;;;;;;;;;5096164;28;20253;-66
2022/03/04 02:58:47;;;;;;;26.33;15.20;;;;;;;;;;5096283;28;20205;-66
2022/03/04 03:01:14;;;;;;;30.23;17.08;;;;;;;;;;5096389;28;20284;-66
2022/03/04 03:03:41;;;;;;;31.88;17.90;;;;;;;;;;5096459;28;20197;-65
2022/03/04 03:06:09;;;;;;;31.70;17.30;;;;;;;;;;5096349;28;20551;-66
2022/03/04 03:08:36;;;;;;;32.65;18.23;;;;;;;;;;5096396;28;20247;-66
2022/03/04 03:11:04;;;;;;;37.60;17.70;;;;;;;;;;5095839;28;20256;-65
2022/03/04 03:13:32;;;;;;;34.40;18.77;;;;;;;;;;5096189;28;20204;-65
2022/03/04 03:15:59;;;;;;;28.35;18.98;;;;;;;;;;5095773;28;20214;-65
2022/03/04 03:18:27;;;;;;;33.35;18.58;;;;;;;;;;5096204;28;20288;-66
2022/03/04 03:20:54;;;;;;;34.40;17.60;;;;;;;;;;5096261;28;20189;-65
2022/03/04 03:23:21;;;;;;;29.65;17.27;;;;;;;;;;5096435;28;20241;-65
2022/03/04 03:25:48;;;;;;;34.47;17.13;;;;;;;;;;5096001;28;20722;-65
2022/03/04 03:28:15;;;;;;;35.15;17.83;;;;;;;;;;5096025;28;20200;-67
2022/03/04 03:30:44;;;;;;;39.75;19.40;;;;;;;;;;5095903;28;20190;-66
2022/03/04 03:33:11;;;;;;;29.85;16.85;;;;;;;;;;5095629;28;20284;-66
2022/03/04 03:35:39;;;;;;;37.10;18.48;;;;;;;;;;5095546;28;20288;-66
2022/03/04 03:38:06;;;;;;;30.02;17.67;;;;;;;;;;5095888;28;20189;-66
2022/03/04 03:40:33;;;;;;;32.20;18.15;;;;;;;;;;5096145;28;20190;-66
2022/03/04 03:43:00;;;;;;;35.33;18.67;;;;;;;;;;5095785;28;20193;-66
2022/03/04 03:45:28;;;;;;;36.50;18.15;;;;;;;;;;5094585;28;20197;-65
2022/03/04 03:47:57;;;;;;;38.95;19.70;;;;;;;;;;5096549;28;20205;-65
2022/03/04 03:50:24;;;;;;;31.58;19.58;;;;;;;;;;5095501;28;20285;-65
2022/03/04 03:52:51;;;;;;;33.95;19.95;;;;;;;;;;5095297;28;20666;-65
2022/03/04 03:55:18;;;;;;;34.05;18.95;;;;;;;;;;5095537;28;20216;-66
2022/03/04 03:57:45;;;;;;;32.33;18.75;;;;;;;;;;5095081;28;20309;-66
2022/03/04 04:00:13;;;;;;;38.83;20.55;;;;;;;;;;5095435;28;20197;-66
2022/03/04 04:02:41;;;;;;;32.17;18.40;;;;;;;;;;5095254;28;20197;-66
2022/03/04 04:05:11;;;;;;;37.72;18.60;;;;;;;;;;5095546;28;20662;-65
2022/03/04 04:07:39;;;;;;;36.42;19.83;;;;;;;;;;5095964;28;20201;-65
2022/03/04 04:10:06;;;;;;;35.17;19.13;;;;;;;;;;5095045;28;20288;-66
2022/03/04 04:12:33;;;;;;;32.65;20.48;;;;;;;;;;5095522;28;20229;-65
2022/03/04 04:15:01;;;;;;;42.92;19.88;;;;;;;;;;5095141;28;20207;-66
2022/03/04 04:17:28;;;;;;;38.30;19.58;;;;;;;;;;5094609;28;20217;-66
2022/03/04 04:19:55;;;;;;;40.10;18.90;;;;;;;;;;5095081;28;20548;-65
2022/03/04 04:22:24;;;;;;;39.83;19.88;;;;;;;;;;5094650;28;20193;-66
2022/03/04 04:24:51;;;;;;;39.58;22.05;;;;;;;;;;5094954;28;20202;-67
2022/03/04 04:27:18;;;;;;;42.78;20.88;;;;;;;;;;5094516;28;20197;-66
2022/03/04 04:29:46;;;;;;;33.67;18.80;;;;;;;;;;5094882;28;20623;-66
2022/03/04 04:32:13;;;;;;;32.97;19.15;;;;;;;;;;5094775;28;20531;-65
2022/03/04 04:34:40;;;;;;;34.80;19.15;;;;;;;;;;5094789;28;20639;-66
2022/03/04 04:37:07;;;;;;;41.60;22.20;;;;;;;;;;5094540;28;20243;-65
2022/03/04 04:39:36;;;;;;;36.17;19.80;;;;;;;;;;5094545;28;20528;-66
2022/03/04 04:42:03;;;;;;;40.35;20.67;;;;;;;;;;5094545;28;20308;-65
2022/03/04 04:44:30;;;;;;;36.97;19.02;;;;;;;;;;5094596;28;20197;-66
2022/03/04 04:46:58;;;;;;;40.75;20.15;;;;;;;;;;5094659;28;20236;-66
2022/03/04 04:49:25;;;;;;;34.85;19.52;;;;;;;;;;5095107;28;20280;-65
2022/03/04 04:51:52;;;;;;;39.58;20.92;;;;;;;;;;5094720;28;20474;-65
2022/03/04 04:54:20;;;;;;;33.40;20.00;;;;;;;;;;5094936;28;20193;-66
2022/03/04 04:56:48;;;;;;;34.85;20.13;;;;;;;;;;5093896;28;20256;-66
2022/03/04 04:59:15;;;;;;;42.08;21.58;;;;;;;;;;5094352;28;20194;-66
2022/03/04 05:01:43;;;;;;;41.22;21.48;;;;;;;;;;5093832;28;20202;-66
2022/03/04 05:04:10;;;;;;;41.95;20.15;;;;;;;;;;5093980;28;20644;-65
2022/03/04 05:06:37;;;;;;;41.55;21.60;;;;;;;;;;5094091;28;20288;-65
2022/03/04 05:09:04;;;;;;;38.08;21.25;;;;;;;;;;5094382;28;20229;-64
2022/03/04 05:11:32;;;;;;;42.38;21.00;;;;;;;;;;5094432;28;20640;-66
2022/03/04 05:14:01;;;;;;;52.20;23.00;;;;;;;;;;5094057;28;20280;-66
2022/03/04 05:16:28;;;;;;;41.70;21.77;;;;;;;;;;5094009;28;20550;-67
2022/03/04 05:18:55;;;;;;;35.17;18.33;;;;;;;;;;5094027;28;20224;-67
2022/03/04 05:21:22;;;;;;;44.55;21.67;;;;;;;;;;5093654;28;20208;-66
2022/03/04 05:24:02;;;;;;;42.20;21.88;;;;;;;;;;5093389;28;20241;-66
2022/03/04 05:26:30;;;;;;;45.60;23.48;;;;;;;;;;5093759;28;20185;-67
2022/03/04 05:28:58;;;;;;;38.08;20.50;;;;;;;;;;5093582;28;20254;-66
2022/03/04 05:31:26;;;;;;;42.35;21.25;;;;;;;;;;5093731;28;20252;-67
2022/03/04 05:33:54;;;;;;;43.85;21.33;;;;;;;;;;5093821;28;20232;-66
2022/03/04 05:36:21;;;;;;;38.67;20.15;;;;;;;;;;5093311;28;20204;-67
2022/03/04 05:38:49;;;;;;;41.60;22.30;;;;;;;;;;5093727;28;20284;-66
2022/03/04 05:41:17;;;;;;;40.00;19.10;;;;;;;;;;5093838;28;20677;-66
2022/03/04 05:43:44;;;;;;;41.72;20.17;;;;;;;;;;5093656;28;20604;-66
2022/03/04 05:46:11;;;;;;;42.22;21.23;;;;;;;;;;5093628;28;20197;-65
2022/03/04 05:48:40;;;;;;;45.13;21.80;;;;;;;;;;5093269;28;20199;-66
2022/03/04 05:51:07;;;;;;;39.28;21.48;;;;;;;;;;5093614;28;20197;-66
2022/03/04 05:53:35;;;;;;;39.15;20.48;;;;;;;;;;5093433;28;20194;-65
2022/03/04 05:56:02;;;;;;;40.03;22.67;;;;;;;;;;5093151;28;20189;-65
2022/03/04 05:58:29;;;;;;;43.50;21.02;;;;;;;;;;5093377;28;20220;-66
2022/03/04 06:00:57;;;;;;;45.05;19.10;;;;;;;;;;5093637;28;20221;-65
2022/03/04 06:03:24;;;;;;;46.80;21.10;;;;;;;;;;5092819;28;20200;-66
2022/03/04 06:05:53;;;;;;;46.78;22.50;;;;;;;;;;5092578;28;20193;-66
2022/03/04 06:08:20;;;;;;;46.75;21.45;;;;;;;;;;5092873;28;20198;-65
2022/03/04 06:10:48;;;;;;;38.33;20.33;;;;;;;;;;5097030;28;20328;-66
2022/03/04 06:13:15;;;;;;;46.42;23.00;;;;;;;;;;5096508;28;20242;-65
2022/03/04 06:15:42;;;;;;;39.17;22.02;;;;;;;;;;5096699;28;20197;-66
2022/03/04 06:18:09;;;;;;;48.97;23.85;;;;;;;;;;5097318;28;20308;-66
2022/03/04 06:20:36;;;;;;;43.83;22.15;;;;;;;;;;5097039;28;20197;-66
2022/03/04 06:23:05;;;;;;;42.58;21.85;;;;;;;;;;5097146;28;20227;-66
2022/03/04 06:25:32;;;;;;;48.28;22.60;;;;;;;;;;5097171;28;20212;-65
2022/03/04 06:28:00;;;;;;;42.80;23.40;;;;;;;;;;5097204;28;20622;-68
2022/03/04 06:30:28;;;;;;;41.22;21.85;;;;;;;;;;5096769;28;20281;-65
2022/03/04 06:33:30;;;;;;;45.30;22.60;;;;;;;;;;5096862;28;20236;-65
2022/03/04 06:35:44;;;;;;;44.67;22.67;;;;;;;;;;5096611;28;20198;-65
2022/03/04 06:38:13;;;;;;;46.58;24.20;;;;;;;;;;5096535;28;20245;-65
2022/03/04 06:40:41;;;;;;;49.42;22.33;;;;;;;;;;5096503;28;20201;-66
2022/03/04 06:43:08;;;;;;;38.53;19.92;;;;;;;;;;5097144;28;20558;-65
2022/03/04 06:45:35;;;;;;;43.47;23.02;;;;;;;;;;5096843;28;20197;-66
2022/03/04 06:48:06;;;;;;;46.28;22.48;;;;;;;;;;5096407;28;20240;-66
2022/03/04 06:50:33;;;;;;;44.25;22.23;;;;;;;;;;5096451;28;20280;-66
2022/03/04 06:53:05;;;;;;;49.30;23.00;;;;;;;;;;5096540;28;20288;-65
2022/03/04 06:55:34;;;;;;;45.97;23.30;;;;;;;;;;5096790;28;20236;-66
2022/03/04 06:58:01;;;;;;;43.90;21.33;;;;;;;;;;5096457;28;20257;-65
2022/03/04 07:00:29;;;;;;;42.55;22.02;;;;;;;;;;5096616;28;20204;-65
2022/03/04 07:02:56;;;;;;;35.70;22.08;;;;;;;;;;5096638;28;20584;-65
2022/03/04 07:05:24;;;;;;;47.03;22.60;;;;;;;;;;5096107;28;20712;-66
2022/03/04 07:07:52;;;;;;;43.20;22.17;;;;;;;;;;5096450;28;20250;-65
2022/03/04 07:10:19;;;;;;;43.55;21.85;;;;;;;;;;5095893;28;20280;-65
2022/03/04 07:12:48;;;;;;;41.97;18.83;;;;;;;;;;5096090;28;20182;-65
2022/03/04 07:15:16;;;;;;;41.20;21.20;;;;;;;;;;5096143;28;20196;-65
2022/03/04 07:17:43;;;;;;;47.13;21.95;;;;;;;;;;5096128;28;20217;-66
2022/03/04 07:20:11;;;;;;;38.80;20.58;;;;;;;;;;5094891;28;20193;-65
2022/03/04 07:22:39;;;;;;;41.90;22.30;;;;;;;;;;5096313;28;20196;-65
2022/03/04 07:25:07;;;;;;;41.17;21.10;;;;;;;;;;5095662;28;20251;-66
2022/03/04 07:27:35;;;;;;;41.58;20.45;;;;;;;;;;5095955;28;20288;-65
2022/03/04 07:30:05;;;;;;;35.25;20.40;;;;;;;;;;5096074;28;20556;-66
2022/03/04 07:32:32;;;;;;;38.60;21.05;;;;;;;;;;5095922;28;20193;-65
2022/03/04 07:34:59;;;;;;;36.55;19.67;;;;;;;;;;5095868;28;20220;-66
2022/03/04 07:37:27;;;;;;;43.42;18.70;;;;;;;;;;5095747;28;20298;-65
2022/03/04 07:39:54;;;;;;;40.10;21.92;;;;;;;;;;5095452;28;20713;-66
2022/03/04 07:42:22;;;;;;;37.88;19.45;;;;;;;;;;5095675;28;20235;-66
2022/03/04 07:44:50;;;;;;;39.47;18.05;;;;;;;;;;5096069;28;20193;-66
2022/03/04 07:47:18;;;;;;;40.28;21.42;;;;;;;;;;5095379;28;20200;-66
2022/03/04 07:49:46;;;;;;;36.88;18.85;;;;;;;;;;5095170;28;20714;-65
2022/03/04 07:52:13;;;;;;;39.78;20.83;;;;;;;;;;5095703;28;20629;-65
2022/03/04 07:54:41;;;;;;;54.17;20.70;;;;;;;;;;5095678;28;20201;-65
2022/03/04 07:57:08;;;;;;;31.27;19.20;;;;;;;;;;5095364;28;20219;-66
2022/03/04 07:59:35;;;;;;;40.25;20.95;;;;;;;;;;5094995;28;20229;-66
2022/03/04 08:02:02;;;;;;;32.42;18.15;;;;;;;;;;5095257;28;20201;-66
2022/03/04 08:04:31;;;;;;;35.72;19.65;;;;;;;;;;5095197;28;20193;-66
2022/03/04 08:06:58;;;;;;;37.80;18.88;;;;;;;;;;5094958;28;20229;-67
2022/03/04 08:09:26;;;;;;;38.22;21.23;;;;;;;;;;5095236;28;20282;-65
2022/03/04 08:11:53;;;;;;;34.17;17.80;;;;;;;;;;5095436;28;20290;-66
2022/03/04 08:14:20;;;;;;;34.88;19.80;;;;;;;;;;5094962;28;20559;-67
2022/03/04 08:16:47;;;;;;;31.05;19.13;;;;;;;;;;5094734;28;20229;-65
2022/03/04 08:19:14;;;;;;;31.25;16.85;;;;;;;;;;5094558;28;20679;-66
2022/03/04 08:21:45;;;;;;;34.75;17.80;;;;;;;;;;5094752;28;20229;-66
2022/03/04 08:24:12;;;;;;;33.67;16.50;;;;;;;;;;5094938;28;20253;-65
2022/03/04 08:26:41;;;;;;;29.52;17.55;;;;;;;;;;5094532;28;20225;-66
2022/03/04 08:29:09;;;;;;;28.45;18.35;;;;;;;;;;5094343;28;20227;-65
2022/03/04 08:31:36;;;;;;;32.30;18.48;;;;;;;;;;5094452;28;20288;-65
2022/03/04 08:34:03;;;;;;;32.90;18.15;;;;;;;;;;5094465;28;20204;-66
2022/03/04 08:36:31;;;;;;;35.38;18.05;;;;;;;;;;5095007;28;20286;-66
2022/03/04 08:39:03;;;;;;;31.33;18.60;;;;;;;;;;5094396;28;20216;-65
2022/03/04 08:41:30;;;;;;;31.08;19.08;;;;;;;;;;5094793;28;20216;-65
2022/03/04 08:43:57;;;;;;;40.70;18.02;;;;;;;;;;5094842;28;20296;-65
2022/03/04 08:46:24;;;;;;;32.67;17.00;;;;;;;;;;5094024;28;20194;-65
2022/03/04 08:48:52;;;;;;;33.90;18.70;;;;;;;;;;5094095;28;20237;-66
2022/03/04 08:51:24;;;;;;;38.17;19.25;;;;;;;;;;5094345;28;20194;-66
2022/03/04 08:53:51;;;;;;;29.42;16.60;;;;;;;;;;5094945;28;20186;-66
2022/03/04 08:56:20;;;;;;;31.10;18.35;;;;;;;;;;5094248;28;20616;-65
2022/03/04 08:58:48;;;;;;;24.73;16.48;;;;;;;;;;5094234;28;20217;-66
2022/03/04 09:01:15;;;;;;;35.05;19.77;;;;;;;;;;5094083;28;20570;-65
2022/03/04 09:03:42;;;;;;;28.40;16.88;;;;;;;;;;5094289;28;20659;-65
2022/03/04 09:06:09;;;;;;;32.15;18.17;;;;;;;;;;5093942;28;20557;-65
2022/03/04 09:08:37;;;;;;;31.25;17.58;;;;;;;;;;5094068;28;20208;-66
2022/03/04 09:11:04;;;;;;;31.50;16.67;;;;;;;;;;5093723;28;20256;-65
2022/03/04 09:13:33;;;;;;;31.88;16.92;;;;;;;;;;5094482;28;20297;-66
2022/03/04 09:16:00;;;;;;;25.65;15.88;;;;;;;;;;5093466;28;20268;-65
2022/03/04 09:18:28;;;;;;;31.90;16.30;;;;;;;;;;5094047;28;20222;-66
2022/03/04 09:20:55;;;;;;;25.48;16.48;;;;;;;;;;5093556;28;20233;-65
2022/03/04 09:23:22;;;;;;;25.27;15.80;;;;;;;;;;5093912;28;20198;-66
2022/03/04 09:25:51;;;;;;;32.30;17.42;;;;;;;;;;5093819;28;20248;-65
2022/03/04 09:28:18;;;;;;;28.55;17.30;;;;;;;;;;5093788;28;20210;-65
2022/03/04 09:30:46;;;;;;;30.55;16.92;;;;;;;;;;5093961;28;20202;-65
2022/03/04 09:33:14;;;;;;;35.08;17.77;;;;;;;;;;5093770;28;20274;-66
2022/03/04 09:35:41;;;;;;;30.85;16.13;;;;;;;;;;5093603;28;20284;-66
2022/03/04 09:38:08;;;;;;;28.00;15.68;;;;;;;;;;5093328;28;20209;-66
2022/03/04 09:40:36;;;;;;;25.60;15.88;;;;;;;;;;5093920;28;20284;-65
2022/03/04 09:43:06;;;;;;;26.65;15.10;;;;;;;;;;5093309;28;20248;-66
2022/03/04 09:45:33;;;;;;;27.10;16.45;;;;;;;;;;5093585;28;20282;-66
2022/03/04 09:48:03;;;;;;;29.27;17.55;;;;;;;;;;5093381;28;20732;-65
2022/03/04 09:50:30;;;;;;;30.17;15.77;;;;;;;;;;5093686;28;20278;-65
2022/03/04 09:52:58;;;;;;;29.15;16.98;;;;;;;;;;5093201;28;20207;-65
2022/03/04 09:55:25;;;;;;;28.25;17.42;;;;;;;;;;5093207;28;20725;-65
2022/03/04 09:57:52;;;;;;;26.10;14.40;;;;;;;;;;5093482;28;20204;-66
2022/03/04 10:00:20;;;;;;;29.27;17.58;;;;;;;;;;5093477;28;20236;-66
2022/03/04 10:02:47;;;;;;;27.95;16.25;;;;;;;;;;5093643;28;20507;-66
2022/03/04 10:05:15;;;;;;;30.45;17.02;;;;;;;;;;5093501;28;20293;-65
2022/03/04 10:07:44;;;;;;;31.98;16.23;;;;;;;;;;5093257;28;20244;-66
2022/03/04 10:10:13;;;;;;;29.40;16.02;;;;;;;;;;5093103;28;20199;-65
2022/03/04 10:12:55;;;;;;;21.98;14.38;;;;;;;;;;5093387;28;20210;-65
2022/03/04 10:15:22;;;;;;;28.55;16.27;;;;;;;;;;5093495;28;20189;-65
2022/03/04 10:17:58;;;;;;;31.27;16.17;;;;;;;;;;5092907;28;20675;-65
2022/03/04 10:20:33;;;;;;;26.52;15.00;;;;;;;;;;5093328;28;20201;-65
2022/03/04 10:23:11;;;;;;;29.25;15.70;;;;;;;;;;5093025;28;20183;-65
2022/03/04 10:25:38;;;;;;;27.73;15.05;;;;;;;;;;5093267;28;20631;-66
2022/03/04 10:28:09;;;;;;;27.70;15.23;;;;;;;;;;5092723;28;20193;-65
2022/03/04 10:30:37;;;;;;;24.77;14.23;;;;;;;;;;5093053;28;20178;-65
2022/03/04 10:33:07;;;;;;;28.05;14.23;;;;;;;;;;5092684;28;20194;-66
2022/03/04 10:35:36;;;;;;;28.15;15.43;;;;;;;;;;5093123;28;20200;-66
2022/03/04 10:38:04;;;;;;;22.55;14.70;;;;;;;;;;5093006;28;20193;-66
2022/03/04 10:40:33;;;;;;;25.77;14.63;;;;;;;;;;5092854;28;20285;-65
2022/03/04 10:43:01;;;;;;;21.83;13.00;;;;;;;;;;5092715;28;20230;-65
2022/03/04 10:45:29;;;;;;;26.10;14.82;;;;;;;;;;5093102;28;20281;-65
2022/03/04 10:47:58;;;;;;;29.60;15.73;;;;;;;;;;5092893;28;20207;-66
2022/03/04 10:50:32;;;;;;;23.83;14.70;;;;;;;;;;5092714;28;20248;-66
2022/03/04 10:53:01;;;;;;;28.75;14.35;;;;;;;;;;5092689;28;20224;-66
2022/03/04 10:55:33;;;;;;;24.30;14.20;;;;;;;;;;5094734;28;20284;-65
2022/03/04 10:58:01;;;;;;;26.05;14.20;;;;;;;;;;5096574;28;20277;-65
2022/03/04 11:00:29;;;;;;;23.73;14.80;;;;;;;;;;5096600;28;20235;-65
2022/03/04 11:02:56;;;;;;;25.08;14.32;;;;;;;;;;5096226;28;20196;-65
2022/03/04 11:05:24;;;;;;;25.05;14.30;;;;;;;;;;5096527;28;20639;-66
2022/03/04 11:07:51;;;;;;;24.08;15.15;;;;;;;;;;5096558;28;20233;-65
2022/03/04 11:10:21;;;;;;;23.75;14.35;;;;;;;;;;5096195;28;20255;-67
2022/03/04 11:12:50;;;;;;;24.00;14.50;;;;;;;;;;5096030;28;20191;-66
2022/03/04 11:15:19;;;;;;;23.23;14.48;;;;;;;;;;5096359;28;20639;-66
2022/03/04 11:17:47;;;;;;;30.00;16.40;;;;;;;;;;5096161;28;20194;-66
2022/03/04 11:20:14;;;;;;;24.42;14.98;;;;;;;;;;5096371;28;20247;-66
2022/03/04 11:22:43;;;;;;;24.90;14.88;;;;;;;;;;5096143;28;20190;-66
2022/03/04 11:25:12;;;;;;;22.60;14.45;;;;;;;;;;5096039;28;20198;-66
2022/03/04 11:27:43;;;;;;;21.33;15.02;;;;;;;;;;5096234;28;20208;-66
2022/03/04 11:30:25;;;;;;;26.63;14.93;;;;;;;;;;5096190;28;20182;-66
2022/03/04 11:33:00;;;;;;;23.38;14.55;;;;;;;;;;5095471;28;20282;-66
2022/03/04 11:35:37;;;;;;;28.88;14.25;;;;;;;;;;5095937;28;20650;-65
2022/03/04 11:38:04;;;;;;;25.15;13.50;;;;;;;;;;5095443;28;20238;-66
2022/03/04 11:40:35;;;;;;;21.80;14.80;;;;;;;;;;5095726;28;20327;-66
2022/03/04 11:43:06;;;;;;;21.50;14.55;;;;;;;;;;5096065;28;20182;-65
2022/03/04 11:45:34;;;;;;;21.92;14.27;;;;;;;;;;5095927;28;20188;-66
2022/03/04 11:48:07;;;;;;;24.83;14.23;;;;;;;;;;5095901;28;20204;-66
2022/03/04 11:50:36;;;;;;;27.80;15.07;;;;;;;;;;5095056;28;20711;-66
2022/03/04 11:53:13;;;;;;;25.77;14.50;;;;;;;;;;5095090;28;20291;-66
2022/03/04 11:55:40;;;;;;;20.98;13.13;;;;;;;;;;5095193;28;20242;-66
2022/03/04 11:58:09;;;;;;;21.67;14.23;;;;;;;;;;5095361;28;20668;-67
2022/03/04 12:00:37;;;;;;;26.92;14.25;;;;;;;;;;5095012;28;20220;-65
2022/03/04 12:03:12;;;;;;;22.83;13.80;;;;;;;;;;5094924;28;20197;-66
2022/03/04 12:05:39;;;;;;;21.58;13.57;;;;;;;;;;5095238;28;20197;-66
2022/03/04 12:08:10;;;;;;;21.50;14.43;;;;;;;;;;5094206;28;20229;-65
2022/03/04 12:10:42;;;;;;;21.13;12.88;;;;;;;;;;5095756;28;20255;-66
2022/03/04 12:13:12;;;;;;;23.52;14.18;;;;;;;;;;5095006;28;20650;-66
2022/03/04 12:15:40;;;;;;;21.00;13.05;;;;;;;;;;5094906;28;20222;-65
2022/03/04 12:18:08;;;;;;;21.35;12.80;;;;;;;;;;5095013;28;20238;-66
2022/03/04 12:20:54;;;;;;;19.80;12.30;;;;;;;;;;5094963;28;20223;-66
2022/03/04 12:23:33;;;;;;;20.02;12.25;;;;;;;;;;5094643;28;20281;-67
2022/03/04 12:26:08;;;;;;;17.42;11.90;;;;;;;;;;5094600;28;20182;-65
2022/03/04 12:28:37;;;;;;;18.85;12.30;;;;;;;;;;5094466;28;20229;-65
2022/03/04 12:31:18;;;;;;;23.98;13.48;;;;;;;;;;5094688;28;20198;-65
2022/03/04 12:33:46;;;;;;;23.08;11.93;;;;;;;;;;5094995;28;20226;-65
2022/03/04 12:36:19;;;;;;;19.75;10.88;;;;;;;;;;5094403;28;20197;-66
2022/03/04 12:38:47;;;;;;;16.20;10.35;;;;;;;;;;5094814;28;20195;-66
2022/03/04 12:41:17;;;;;;;19.13;11.25;;;;;;;;;;5094944;28;20187;-67
2022/03/04 12:43:46;;;;;;;19.75;12.75;;;;;;;;;;5094212;28;20199;-66
2022/03/04 12:46:15;;;;;;;27.33;14.80;;;;;;;;;;5094262;28;20201;-65
2022/03/04 12:48:44;;;;;;;17.92;12.80;;;;;;;;;;5094457;28;20193;-66
2022/03/04 12:51:21;;;;;;;22.08;12.00;;;;;;;;;;5094156;28;20280;-65
2022/03/04 12:53:56;;;;;;;21.13;13.60;;;;;;;;;;5094211;28;20268;-66
2022/03/04 12:56:29;;;;;;;19.92;13.05;;;;;;;;;;5094049;28;20272;-65
2022/03/04 12:59:02;;;;;;;18.75;12.45;;;;;;;;;;5094311;28;20194;-69
2022/03/04 13:01:31;;;;;;;19.95;13.05;;;;;;;;;;5094058;28;20176;-68
2022/03/04 13:04:01;;;;;;;21.38;12.63;;;;;;;;;;5096526;28;20284;-69
2022/03/04 13:06:41;;;;;;;21.52;13.63;;;;;;;;;;5093828;28;20279;-68
2022/03/04 13:09:11;;;;;;;20.98;13.32;;;;;;;;;;5094109;28;20191;-68
2022/03/04 13:11:40;;;;;;;19.63;12.23;;;;;;;;;;5092719;28;20225;-67
2022/03/04 13:14:11;;;;;;;21.40;13.70;;;;;;;;;;5092942;28;20229;-69
2022/03/04 13:16:45;;;;;;;18.42;11.95;;;;;;;;;;5093662;28;20278;-68
2022/03/04 13:19:16;;;;;;;20.23;13.05;;;;;;;;;;5092554;28;20310;-68
2022/03/04 13:21:44;;;;;;;20.67;13.38;;;;;;;;;;5094004;28;20692;-68
2022/03/04 13:24:13;;;;;;;17.77;12.55;;;;;;;;;;5093659;28;20590;-69
2022/03/04 13:26:51;;;;;;;22.27;12.75;;;;;;;;;;5093778;28;20648;-68
2022/03/04 13:29:20;;;;;;;18.95;12.38;;;;;;;;;;5093374;28;20187;-68
2022/03/04 13:31:48;;;;;;;18.80;11.40;;;;;;;;;;5093700;28;20193;-68
2022/03/04 13:34:15;;;;;;;20.17;13.10;;;;;;;;;;5093335;28;20198;-69
2022/03/04 13:36:48;;;;;;;19.58;11.45;;;;;;;;;;5093631;28;20287;-69
2022/03/04 13:39:19;;;;;;;22.58;12.73;;;;;;;;;;5093537;28;20222;-69
2022/03/04 13:41:46;;;;;;;18.63;11.88;;;;;;;;;;5093243;28;20238;-67
2022/03/04 13:44:14;;;;;;;21.50;11.68;;;;;;;;;;5092891;28;20191;-68
2022/03/04 13:46:56;;;;;;;18.42;11.43;;;;;;;;;;5092992;28;20233;-69
2022/03/04 13:49:25;;;;;;;20.15;12.95;;;;;;;;;;5092673;28;20264;-68
2022/03/04 13:52:10;;;;;;;18.70;12.48;;;;;;;;;;5092987;28;20221;-69
2022/03/04 13:54:50;;;;;;;18.70;12.23;;;;;;;;;;5093300;28;20228;-69
2022/03/04 13:57:31;;;;;;;22.77;12.57;;;;;;;;;;5093395;28;20270;-69
2022/03/04 14:00:02;;;;;;;19.23;11.70;;;;;;;;;;5092598;28;20314;-68
2022/03/04 14:02:38;;;;;;;19.08;12.48;;;;;;;;;;5092755;28;20196;-69
2022/03/04 14:05:08;;;;;;;19.92;11.90;;;;;;;;;;5092933;28;20714;-69
2022/03/04 14:07:46;;;;;;;21.60;12.57;;;;;;;;;;5092564;28;20199;-68
2022/03/04 14:10:14;;;;;;;15.75;11.60;;;;;;;;;;5092842;28;20230;-68
2022/03/04 14:12:42;;;;;;;23.83;12.05;;;;;;;;;;5092933;28;20231;-68
2022/03/04 14:15:10;;;;;;;22.15;12.18;;;;;;;;;;5092731;28;20231;-69
2022/03/04 14:17:48;;;;;;;20.73;13.27;;;;;;;;;;5092724;28;20244;-69
2022/03/04 14:20:16;;;;;;;21.52;12.65;;;;;;;;;;5092700;28;20215;-68
2022/03/04 14:22:43;;;;;;;21.00;12.60;;;;;;;;;;5093272;28;20650;-68
2022/03/04 14:25:11;;;;;;;24.00;13.52;;;;;;;;;;5093057;28;20191;-68